createdAt,value
2023-05-06T00:00:10.444Z,3.70
2023-05-06T00:02:38.835Z,3.70
2023-05-06T00:05:08.230Z,3.47
2023-05-06T00:07:37.093Z,3.63
2023-05-06T00:10:07.753Z,4.00
2023-05-06T00:12:36.179Z,3.93
2023-05-06T00:15:04.929Z,3.60
2023-05-06T00:17:33.261Z,2.67
2023-05-06T00:20:01.864Z,2.83
2023-05-06T00:22:30.286Z,2.90
2023-05-06T00:24:58.796Z,2.97
2023-05-06T00:27:28.792Z,3.17
2023-05-06T00:29:58.029Z,3.00
2023-05-06T00:32:26.523Z,3.90
2023-05-06T00:34:54.897Z,3.83
2023-05-06T00:37:23.183Z,3.60
2023-05-06T00:39:51.656Z,3.40
2023-05-06T00:42:22.690Z,2.90
2023-05-06T00:44:52.631Z,3.27
2023-05-06T00:47:23.423Z,3.10
2023-05-06T00:49:52.212Z,3.10
2023-05-06T00:52:21.301Z,3.00
2023-05-06T00:54:50.278Z,2.70
2023-05-06T00:57:18.930Z,2.83
2023-05-06T00:59:47.274Z,3.37
2023-05-06T01:02:17.418Z,4.27
2023-05-06T01:04:45.952Z,4.63
2023-05-06T01:07:25.155Z,4.70
2023-05-06T01:10:00.377Z,4.80
2023-05-06T01:12:33.697Z,5.10
2023-05-06T01:15:08.833Z,5.23
2023-05-06T01:17:44.947Z,5.10
2023-05-06T01:20:15.419Z,4.97
2023-05-06T01:22:43.958Z,4.47
2023-05-06T01:25:21.425Z,4.70
2023-05-06T01:27:49.846Z,3.40
2023-05-06T01:30:19.544Z,3.13
2023-05-06T01:32:59.731Z,3.13
2023-05-06T01:35:36.639Z,2.97
2023-05-06T01:38:13.947Z,2.93
2023-05-06T01:40:45.725Z,2.90
2023-05-06T01:43:14.542Z,2.40
2023-05-06T01:45:43.898Z,2.83
2023-05-06T01:48:13.008Z,2.97
2023-05-06T01:50:42.057Z,3.43
2023-05-06T01:53:10.368Z,3.10
2023-05-06T01:55:38.970Z,3.00
2023-05-06T01:58:08.832Z,3.23
2023-05-06T02:00:40.313Z,2.97
2023-05-06T02:03:08.979Z,3.10
2023-05-06T02:05:37.446Z,3.60
2023-05-06T02:08:06.004Z,3.50
2023-05-06T02:10:34.334Z,3.40
2023-05-06T02:13:02.820Z,3.60
2023-05-06T02:15:32.580Z,3.97
2023-05-06T02:18:01.707Z,3.30
2023-05-06T02:20:30.168Z,3.80
2023-05-06T02:22:58.462Z,4.17
2023-05-06T02:25:26.803Z,4.27
2023-05-06T02:27:55.136Z,4.00
2023-05-06T02:30:23.691Z,3.80
2023-05-06T02:32:53.530Z,4.60
2023-05-06T02:35:22.022Z,4.33
2023-05-06T02:37:50.380Z,4.00
2023-05-06T02:40:18.993Z,4.40
2023-05-06T02:42:47.390Z,4.53
2023-05-06T02:45:15.783Z,4.43
2023-05-06T02:47:44.181Z,5.17
2023-05-06T02:50:14.029Z,4.30
2023-05-06T02:52:42.973Z,4.43
2023-05-06T02:55:11.965Z,4.30
2023-05-06T02:57:40.408Z,4.60
2023-05-06T03:00:11.136Z,4.57
2023-05-06T03:02:39.610Z,4.23
2023-05-06T03:05:09.305Z,4.10
2023-05-06T03:07:40.086Z,5.60
2023-05-06T03:10:09.268Z,4.60
2023-05-06T03:12:37.598Z,4.20
2023-05-06T03:15:07.274Z,4.00
2023-05-06T03:17:36.164Z,4.33
2023-05-06T03:20:05.175Z,4.57
2023-05-06T03:22:33.490Z,4.20
2023-05-06T03:25:03.399Z,4.80
2023-05-06T03:27:31.790Z,3.80
2023-05-06T03:30:00.204Z,4.43
2023-05-06T03:32:28.638Z,4.70
2023-05-06T03:34:57.077Z,4.40
2023-05-06T03:37:25.391Z,4.30
2023-05-06T03:39:53.726Z,4.17
2023-05-06T03:42:23.622Z,4.70
2023-05-06T03:44:52.134Z,4.30
2023-05-06T03:47:20.657Z,5.10
2023-05-06T03:49:49.196Z,4.23
2023-05-06T03:52:17.577Z,4.60
2023-05-06T03:54:46.069Z,4.50
2023-05-06T03:57:14.495Z,4.80
2023-05-06T03:59:44.281Z,4.77
2023-05-06T04:02:12.775Z,4.93
2023-05-06T04:04:41.261Z,4.40
2023-05-06T04:07:09.649Z,4.60
2023-05-06T04:09:37.967Z,5.17
2023-05-06T04:12:07.076Z,4.20
2023-05-06T04:14:35.576Z,4.80
2023-05-06T04:17:05.627Z,3.83
2023-05-06T04:19:34.065Z,4.43
2023-05-06T04:22:02.608Z,4.77
2023-05-06T04:24:31.471Z,5.33
2023-05-06T04:26:59.801Z,4.83
2023-05-06T04:29:28.322Z,4.33
2023-05-06T04:31:56.687Z,5.03
2023-05-06T04:34:27.904Z,3.97
2023-05-06T04:36:56.632Z,5.10
2023-05-06T04:39:25.210Z,4.80
2023-05-06T04:41:53.674Z,4.80
2023-05-06T04:44:22.549Z,4.50
2023-05-06T04:46:51.277Z,4.20
2023-05-06T04:49:19.547Z,4.60
2023-05-06T04:51:49.377Z,5.00
2023-05-06T04:54:17.677Z,4.67
2023-05-06T04:56:45.972Z,4.40
2023-05-06T04:59:14.416Z,4.07
2023-05-06T05:01:42.747Z,4.53
2023-05-06T05:04:11.168Z,4.50
2023-05-06T05:06:39.528Z,5.27
2023-05-06T05:09:10.707Z,5.40
2023-05-06T05:11:39.440Z,5.27
2023-05-06T05:14:07.756Z,5.37
2023-05-06T05:16:36.261Z,6.20
2023-05-06T05:19:05.757Z,5.70
2023-05-06T05:21:35.872Z,5.17
2023-05-06T05:24:04.226Z,5.23
2023-05-06T05:26:33.926Z,5.50
2023-05-06T05:29:02.211Z,5.27
2023-05-06T05:31:31.567Z,5.47
2023-05-06T05:34:00.264Z,5.00
2023-05-06T05:36:29.082Z,5.63
2023-05-06T05:38:57.429Z,5.17
2023-05-06T05:41:26.985Z,4.93
2023-05-06T05:43:56.741Z,5.20
2023-05-06T05:46:25.295Z,5.63
2023-05-06T05:48:53.662Z,5.07
2023-05-06T05:51:21.957Z,5.07
2023-05-06T05:53:52.048Z,5.70
2023-05-06T05:56:20.761Z,5.07
2023-05-06T05:58:49.252Z,5.37
2023-05-06T06:01:19.574Z,5.60
2023-05-06T06:03:48.904Z,5.40
2023-05-06T06:06:17.738Z,5.30
2023-05-06T06:08:46.366Z,5.50
2023-05-06T06:11:14.718Z,5.60
2023-05-06T06:13:42.993Z,5.40
2023-05-06T06:16:12.155Z,5.40
2023-05-06T06:18:41.902Z,5.23
2023-05-06T06:21:10.339Z,5.33
2023-05-06T06:23:38.729Z,5.17
2023-05-06T06:26:07.109Z,5.87
2023-05-06T06:28:35.447Z,5.00
2023-05-06T06:31:03.874Z,5.20
2023-05-06T06:33:32.317Z,5.90
2023-05-06T06:36:02.161Z,6.10
2023-05-06T06:38:30.493Z,5.20
2023-05-06T06:40:58.803Z,5.47
2023-05-06T06:43:27.282Z,5.63
2023-05-06T06:45:56.460Z,5.67
2023-05-06T06:48:24.958Z,6.13
2023-05-06T06:50:53.320Z,5.00
2023-05-06T06:53:23.291Z,5.37
2023-05-06T06:55:51.815Z,5.87
2023-05-06T06:58:20.200Z,5.07
2023-05-06T07:00:48.591Z,6.33
2023-05-06T07:03:19.713Z,5.33
2023-05-06T07:05:48.220Z,5.57
2023-05-06T07:08:17.342Z,5.40
2023-05-06T07:10:47.244Z,6.23
2023-05-06T07:13:16.013Z,5.10
2023-05-06T07:15:44.971Z,5.50
2023-05-06T07:18:13.482Z,5.00
2023-05-06T07:20:41.921Z,4.97
2023-05-06T07:23:10.258Z,5.13
2023-05-06T07:25:38.587Z,5.27
2023-05-06T07:28:08.589Z,5.30
2023-05-06T07:30:39.585Z,5.27
2023-05-06T07:33:08.010Z,5.07
2023-05-06T07:35:36.473Z,5.43
2023-05-06T07:38:04.944Z,5.47
2023-05-06T07:40:33.532Z,6.10
2023-05-06T07:43:01.880Z,5.03
2023-05-06T07:45:31.877Z,4.70
2023-05-06T07:48:00.343Z,5.13
2023-05-06T07:50:28.677Z,5.10
2023-05-06T07:52:57.004Z,5.20
2023-05-06T07:55:25.429Z,4.63
2023-05-06T07:57:53.904Z,5.17
2023-05-06T08:00:22.455Z,4.93
2023-05-06T08:02:52.286Z,5.23
2023-05-06T08:05:20.795Z,5.63
2023-05-06T08:07:50.277Z,6.10
2023-05-06T08:10:18.832Z,5.50
2023-05-06T08:12:47.470Z,5.20
2023-05-06T08:15:15.895Z,4.97
2023-05-06T08:17:44.446Z,4.90
2023-05-06T08:20:15.245Z,5.20
2023-05-06T08:22:43.594Z,5.37
2023-05-06T08:25:12.237Z,4.87
2023-05-06T08:27:40.992Z,5.10
2023-05-06T08:30:10.496Z,5.20
2023-05-06T08:32:39.448Z,5.20
2023-05-06T08:35:08.860Z,5.00
2023-05-06T08:37:38.996Z,5.20
2023-05-06T08:40:16.921Z,4.57
2023-05-06T08:42:47.824Z,4.97
2023-05-06T08:45:16.382Z,5.57
2023-05-06T08:47:45.169Z,5.60
2023-05-06T08:50:13.626Z,4.93
2023-05-06T08:52:43.643Z,5.00
2023-05-06T08:55:12.881Z,5.13
2023-05-06T08:57:43.948Z,4.57
2023-05-06T09:00:13.263Z,4.93
2023-05-06T09:02:43.262Z,4.70
2023-05-06T09:05:12.865Z,4.30
2023-05-06T09:07:42.723Z,5.13
2023-05-06T09:10:14.533Z,4.67
2023-05-06T09:12:43.141Z,4.47
2023-05-06T09:15:13.014Z,5.00
2023-05-06T09:17:41.534Z,4.70
2023-05-06T09:20:13.543Z,4.80
2023-05-06T09:22:43.522Z,4.83
2023-05-06T09:25:12.496Z,4.47
2023-05-06T09:27:41.601Z,4.53
2023-05-06T09:30:12.891Z,4.60
2023-05-06T09:32:41.943Z,4.40
2023-05-06T09:35:11.965Z,4.43
2023-05-06T09:37:42.849Z,4.80
2023-05-06T09:40:11.697Z,4.20
2023-05-06T09:42:40.210Z,4.60
2023-05-06T09:45:10.755Z,4.93
2023-05-06T09:47:39.507Z,4.43
2023-05-06T09:50:11.377Z,4.60
2023-05-06T09:52:39.803Z,4.60
2023-05-06T09:55:12.619Z,4.17
2023-05-06T09:57:42.302Z,4.93
2023-05-06T10:00:12.167Z,4.40
2023-05-06T10:02:42.242Z,4.50
2023-05-06T10:05:12.524Z,4.93
2023-05-06T10:07:42.410Z,4.60
2023-05-06T10:10:13.690Z,4.40
2023-05-06T10:12:42.219Z,5.00
2023-05-06T10:15:11.565Z,4.70
2023-05-06T10:17:43.053Z,4.40
2023-05-06T10:20:14.725Z,4.40
2023-05-06T10:22:54.598Z,4.50
2023-05-06T10:25:31.838Z,5.03
2023-05-06T10:28:01.506Z,4.93
2023-05-06T10:30:34.111Z,4.97
2023-05-06T10:33:06.477Z,5.30
2023-05-06T10:35:46.100Z,4.50
2023-05-06T10:38:19.032Z,4.90
2023-05-06T10:40:50.044Z,4.80
2023-05-06T10:43:26.324Z,4.93
2023-05-06T10:46:04.815Z,5.20
2023-05-06T10:48:33.856Z,4.83
2023-05-06T10:51:24.723Z,5.07
2023-05-06T10:54:04.763Z,4.10
2023-05-06T10:56:35.736Z,4.63
2023-05-06T10:59:08.315Z,4.90
2023-05-06T11:01:37.495Z,4.43
2023-05-06T11:04:10.897Z,5.27
2023-05-06T11:06:41.896Z,4.83
2023-05-06T11:09:19.010Z,4.60
2023-05-06T11:12:01.985Z,5.07
2023-05-06T11:14:31.225Z,4.80
2023-05-06T11:17:01.735Z,5.60
2023-05-06T11:19:31.584Z,5.00
2023-05-06T11:22:01.232Z,5.20
2023-05-06T11:24:30.723Z,4.97
2023-05-06T11:27:01.839Z,5.47
2023-05-06T11:29:30.147Z,5.43
2023-05-06T11:31:58.665Z,4.37
2023-05-06T11:34:29.243Z,5.00
2023-05-06T11:37:02.319Z,5.00
2023-05-06T11:39:36.688Z,4.30
2023-05-06T11:42:09.785Z,4.80
2023-05-06T11:44:39.885Z,4.60
2023-05-06T11:47:09.522Z,5.10
2023-05-06T11:49:39.355Z,4.50
2023-05-06T11:52:09.203Z,4.83
2023-05-06T11:54:39.650Z,5.33
2023-05-06T11:57:10.019Z,4.87
2023-05-06T11:59:39.613Z,5.07
2023-05-06T12:02:09.704Z,5.10
2023-05-06T12:04:42.400Z,4.73
2023-05-06T12:07:12.394Z,5.20
2023-05-06T12:09:43.715Z,6.20
2023-05-06T12:12:16.634Z,5.40
2023-05-06T12:14:46.240Z,5.53
2023-05-06T12:17:15.587Z,5.30
2023-05-06T12:19:44.145Z,5.20
2023-05-06T12:22:19.735Z,5.50
2023-05-06T12:24:48.415Z,5.23
2023-05-06T12:27:33.090Z,5.60
2023-05-06T12:30:06.999Z,5.00
2023-05-06T12:32:35.396Z,5.20
2023-05-06T12:35:07.740Z,4.90
2023-05-06T12:37:36.622Z,4.97
2023-05-06T12:40:05.210Z,5.37
2023-05-06T12:42:35.006Z,5.07
2023-05-06T12:45:15.966Z,5.30
2023-05-06T12:47:54.896Z,5.60
2023-05-06T12:50:34.126Z,5.03
2023-05-06T12:53:02.860Z,5.00
2023-05-06T12:55:32.329Z,4.80
2023-05-06T12:58:02.764Z,4.70
2023-05-06T13:00:31.473Z,5.47
2023-05-06T13:02:59.840Z,5.40
2023-05-06T13:05:28.532Z,5.90
2023-05-06T13:07:56.878Z,5.23
2023-05-06T13:10:25.774Z,5.43
2023-05-06T13:12:54.205Z,5.73
2023-05-06T13:15:24.257Z,4.83
2023-05-06T13:17:53.053Z,5.30
2023-05-06T13:20:21.478Z,5.80
2023-05-06T13:22:54.789Z,6.13
2023-05-06T13:25:23.776Z,4.83
2023-05-06T13:27:52.162Z,5.60
2023-05-06T13:30:20.626Z,5.77
2023-05-06T13:32:50.546Z,5.30
2023-05-06T13:35:19.028Z,5.20
2023-05-06T13:37:47.697Z,4.73
2023-05-06T13:40:16.038Z,5.30
2023-05-06T13:42:44.360Z,5.23
2023-05-06T13:45:12.833Z,5.77
2023-05-06T13:47:43.197Z,5.20
2023-05-06T13:50:13.360Z,4.60
2023-05-06T13:52:41.723Z,5.60
2023-05-06T13:55:10.720Z,4.53
2023-05-06T13:57:39.255Z,5.20
2023-05-06T14:00:11.031Z,5.57
2023-05-06T14:02:39.514Z,5.37
2023-05-06T14:05:09.095Z,5.07
2023-05-06T14:07:40.534Z,4.70
2023-05-06T14:10:10.250Z,5.40
2023-05-06T14:12:38.634Z,5.70
2023-05-06T14:15:08.339Z,5.13
2023-05-06T14:17:37.348Z,5.40
2023-05-06T14:20:06.651Z,5.13
2023-05-06T14:22:34.999Z,5.40
2023-05-06T14:25:05.375Z,5.50
2023-05-06T14:27:33.751Z,4.80
2023-05-06T14:30:08.152Z,5.40
2023-05-06T14:32:37.932Z,5.27
2023-05-06T14:35:07.106Z,5.60
2023-05-06T14:37:35.377Z,5.33
2023-05-06T14:40:05.942Z,5.20
2023-05-06T14:42:35.906Z,5.70
2023-05-06T14:45:04.381Z,5.60
2023-05-06T14:47:32.818Z,5.33
2023-05-06T14:50:01.789Z,5.30
2023-05-06T14:52:30.218Z,4.97
2023-05-06T14:54:58.572Z,5.50
2023-05-06T14:57:28.312Z,4.90
2023-05-06T14:59:56.850Z,6.50
2023-05-06T15:02:25.283Z,5.63
2023-05-06T15:04:53.670Z,5.53
2023-05-06T15:07:21.949Z,5.90
2023-05-06T15:09:50.295Z,6.80
2023-05-06T15:12:18.535Z,6.43
2023-05-06T15:14:48.460Z,6.83
2023-05-06T15:17:16.784Z,6.30
2023-05-06T15:19:45.109Z,6.70
2023-05-06T15:22:13.435Z,6.60
2023-05-06T15:24:41.899Z,6.87
2023-05-06T15:27:10.234Z,6.33
2023-05-06T15:29:39.721Z,7.10
2023-05-06T15:32:09.538Z,6.73
2023-05-06T15:34:38.025Z,6.83
2023-05-06T15:37:06.465Z,6.97
2023-05-06T15:39:38.161Z,6.77
2023-05-06T15:42:06.802Z,6.70
2023-05-06T15:44:37.570Z,6.03
2023-05-06T15:47:06.392Z,5.90
2023-05-06T15:49:51.396Z,5.90
2023-05-06T15:52:22.734Z,6.20
2023-05-06T15:54:51.065Z,5.40
2023-05-06T15:57:19.512Z,4.73
2023-05-06T15:59:47.947Z,5.90
2023-05-06T16:04:49.040Z,5.03
2023-05-06T16:07:17.817Z,5.20
2023-05-06T16:09:46.174Z,5.23
2023-05-06T16:12:15.365Z,4.83
2023-05-06T16:14:43.859Z,4.90
2023-05-06T16:17:12.229Z,5.03
2023-05-06T16:19:40.603Z,5.17
2023-05-06T16:22:10.463Z,4.00
2023-05-06T16:24:38.848Z,4.60
2023-05-06T16:27:07.176Z,4.10
2023-05-06T16:29:35.546Z,4.70
2023-05-06T16:32:03.968Z,4.40
2023-05-06T16:34:32.488Z,4.50
2023-05-06T16:37:01.802Z,4.53
2023-05-06T16:39:31.557Z,4.93
2023-05-06T16:41:59.856Z,5.00
2023-05-06T16:44:28.497Z,4.37
2023-05-06T16:46:56.843Z,4.70
2023-05-06T16:49:27.970Z,4.33
2023-05-06T16:51:58.022Z,4.47
2023-05-06T16:54:26.624Z,5.20
2023-05-06T16:56:56.583Z,4.50
2023-05-06T16:59:24.978Z,4.63
2023-05-06T17:01:53.370Z,4.07
2023-05-06T17:04:21.680Z,3.57
2023-05-06T17:06:50.203Z,3.90
2023-05-06T17:09:18.582Z,3.90
2023-05-06T17:11:46.880Z,4.27
2023-05-06T17:14:16.760Z,4.07
2023-05-06T17:16:45.263Z,3.70
2023-05-06T17:19:13.740Z,3.77
2023-05-06T17:21:42.214Z,3.80
2023-05-06T17:24:10.799Z,4.00
2023-05-06T17:26:40.450Z,3.80
2023-05-06T17:29:08.948Z,3.90
2023-05-06T17:31:38.777Z,4.27
2023-05-06T17:34:07.583Z,4.60
2023-05-06T17:36:35.941Z,4.23
2023-05-06T17:39:04.752Z,3.93
2023-05-06T17:41:33.780Z,4.00
2023-05-06T17:44:02.263Z,3.93
2023-05-06T17:46:31.362Z,3.77
2023-05-06T17:49:01.296Z,3.70
2023-05-06T17:51:29.768Z,4.17
2023-05-06T17:53:58.994Z,3.80
2023-05-06T17:56:27.866Z,3.90
2023-05-06T17:58:56.607Z,4.10
2023-05-06T18:01:24.954Z,4.30
2023-05-06T18:03:53.449Z,3.10
2023-05-06T18:06:23.353Z,3.17
2023-05-06T18:08:53.122Z,4.00
2023-05-06T18:11:21.680Z,3.63
2023-05-06T18:13:50.241Z,2.90
2023-05-06T18:16:18.634Z,3.40
2023-05-06T18:18:47.115Z,3.27
2023-05-06T18:21:15.608Z,3.50
2023-05-06T18:23:45.474Z,3.77
2023-05-06T18:26:18.754Z,3.30
2023-05-06T18:28:53.026Z,3.20
2023-05-06T18:31:21.778Z,3.70
2023-05-06T18:33:50.232Z,3.30
2023-05-06T18:36:18.638Z,3.30
2023-05-06T18:38:48.592Z,3.50
2023-05-06T18:41:16.880Z,3.10
2023-05-06T18:43:45.216Z,3.40
2023-05-06T18:46:13.576Z,3.60
2023-05-06T18:48:42.089Z,3.17
2023-05-06T18:51:11.944Z,3.33
2023-05-06T18:53:40.376Z,3.83
2023-05-06T18:56:10.975Z,3.17
2023-05-06T18:58:40.192Z,3.10
2023-05-06T19:01:09.735Z,3.10
2023-05-06T19:03:39.394Z,4.00
2023-05-06T19:06:09.416Z,3.60
2023-05-06T19:08:38.708Z,2.80
2023-05-06T19:11:07.154Z,3.27
2023-05-06T19:13:36.920Z,3.57
2023-05-06T19:16:05.437Z,2.83
2023-05-06T19:18:33.768Z,3.00
2023-05-06T19:21:02.699Z,3.70
2023-05-06T19:23:31.232Z,3.30
2023-05-06T19:25:59.631Z,2.90
2023-05-06T19:28:28.041Z,2.73
2023-05-06T19:30:57.828Z,2.93
2023-05-06T19:33:26.357Z,2.93
2023-05-06T19:35:54.755Z,2.87
2023-05-06T19:38:23.157Z,2.80
2023-05-06T19:40:51.544Z,3.03
2023-05-06T19:43:19.965Z,3.17
2023-05-06T19:45:48.359Z,3.00
2023-05-06T19:48:19.722Z,3.40
2023-05-06T19:50:48.171Z,2.70
2023-05-06T19:53:17.849Z,2.60
2023-05-06T19:55:46.420Z,2.70
2023-05-06T19:58:17.345Z,3.27
2023-05-06T20:00:46.468Z,2.80
2023-05-06T20:03:15.319Z,3.00
2023-05-06T20:05:45.189Z,3.03
2023-05-06T20:08:13.603Z,3.10
2023-05-06T20:10:41.957Z,3.73
2023-05-06T20:13:11.958Z,2.73
2023-05-06T20:15:40.424Z,2.80
2023-05-06T20:18:08.898Z,3.10
2023-05-06T20:20:37.990Z,3.13
2023-05-06T20:23:07.929Z,2.60
2023-05-06T20:25:37.746Z,2.80
2023-05-06T20:28:06.999Z,3.00
2023-05-06T20:30:35.494Z,2.47
2023-05-06T20:33:04.086Z,3.10
2023-05-06T20:35:38.293Z,2.70
2023-05-06T20:38:09.381Z,3.10
2023-05-06T20:40:37.832Z,2.97
2023-05-06T20:43:06.264Z,3.00
2023-05-06T20:45:34.740Z,2.40
2023-05-06T20:48:03.084Z,3.13
2023-05-06T20:50:31.466Z,2.93
2023-05-06T20:52:59.888Z,2.80
2023-05-06T20:55:29.711Z,2.40
2023-05-06T20:57:58.154Z,2.87
2023-05-06T21:00:26.649Z,2.93
2023-05-06T21:02:55.108Z,2.80
2023-05-06T21:05:23.687Z,2.70
2023-05-06T21:07:52.184Z,2.57
2023-05-06T21:10:20.782Z,2.73
2023-05-06T21:12:51.179Z,2.77
2023-05-06T21:15:20.058Z,2.63
2023-05-06T21:17:48.526Z,3.07
2023-05-06T21:20:17.287Z,2.40
2023-05-06T21:22:45.655Z,2.50
2023-05-06T21:25:14.398Z,2.63
2023-05-06T21:27:43.189Z,3.17
2023-05-06T21:30:13.881Z,2.20
2023-05-06T21:32:42.308Z,2.67
2023-05-06T21:35:11.402Z,2.07
2023-05-06T21:37:40.034Z,2.93
2023-05-06T21:40:09.569Z,2.60
2023-05-06T21:42:37.943Z,2.20
2023-05-06T21:45:07.473Z,2.30
2023-05-06T21:47:37.435Z,2.33
2023-05-06T21:50:06.773Z,2.30
2023-05-06T21:52:35.289Z,2.90
2023-05-06T21:55:03.802Z,2.30
2023-05-06T21:57:32.811Z,2.37
2023-05-06T22:00:01.725Z,2.20
2023-05-06T22:02:30.120Z,2.70
2023-05-06T22:05:00.166Z,3.10
2023-05-06T22:07:28.810Z,2.87
2023-05-06T22:09:57.257Z,2.20
2023-05-06T22:12:25.660Z,2.37
2023-05-06T22:14:53.981Z,2.73
2023-05-06T22:17:22.355Z,2.40
2023-05-06T22:19:51.636Z,2.40
2023-05-06T22:22:21.900Z,2.40
2023-05-06T22:24:50.381Z,2.50
2023-05-06T22:27:18.710Z,2.67
2023-05-06T22:29:47.276Z,3.00
2023-05-06T22:32:15.576Z,2.83
2023-05-06T22:34:43.905Z,2.47
2023-05-06T22:37:12.250Z,2.30
2023-05-06T22:39:42.129Z,2.70
2023-05-06T22:42:10.477Z,2.30
2023-05-06T22:44:38.757Z,2.37
2023-05-06T22:47:07.292Z,2.30
2023-05-06T22:49:36.477Z,2.20
2023-05-06T22:52:05.170Z,2.90
2023-05-06T22:54:33.616Z,2.07
2023-05-06T22:57:03.457Z,2.67
2023-05-06T22:59:31.918Z,2.93
2023-05-06T23:02:00.245Z,2.30
2023-05-06T23:04:28.527Z,2.53
2023-05-06T23:06:57.507Z,3.00
2023-05-06T23:09:25.869Z,2.30
2023-05-06T23:11:54.188Z,2.57
2023-05-06T23:14:24.092Z,2.40
2023-05-06T23:16:52.668Z,3.10
2023-05-06T23:19:22.167Z,2.80
2023-05-06T23:21:50.635Z,2.90
2023-05-06T23:24:19.107Z,3.00
2023-05-06T23:26:47.470Z,3.20
2023-05-06T23:29:15.792Z,2.77
2023-05-06T23:31:45.694Z,2.67
2023-05-06T23:34:14.533Z,2.40
2023-05-06T23:36:42.871Z,2.20
2023-05-06T23:39:12.398Z,2.50
2023-05-06T23:41:40.769Z,2.40
2023-05-06T23:44:09.090Z,2.40
2023-05-06T23:46:37.467Z,2.80
2023-05-06T23:49:07.276Z,2.57
2023-05-06T23:51:35.675Z,2.50
2023-05-06T23:54:04.111Z,2.40
2023-05-06T23:56:32.539Z,2.30
2023-05-06T23:59:00.887Z,2.67
